Time;durP1;ratioP1;P1;durP2;ratioP2;P2;SDS_P1;SDS_P2;PMS_P1;PMS_P2;Temp;Humidity;BMP_temperature;BMP_pressure;BME280_temperature;BME280_humidity;BME280_pressure;Samples;Min_cycle;Max_cycle;Signal;HPM_P1;HPM_P2
2024/01/16 00:06:22;;;;;;;20.13;12.03;;;;;;;-143.21;70.57;72349.81;4937258;23;20315;-95
2024/01/16 00:13:20;;;;;;;20.57;12.37;;;;;;;-143.21;69.96;72339.91;4949750;23;20388;-95
2024/01/16 00:16:23;;;;;;;22.27;12.73;;;;;;;-143.21;70.42;72357.75;4930686;23;20317;-95
2024/01/16 00:28:22;;;;;;;21.03;12.30;;;;;;;-143.21;70.98;72361.72;4932904;23;20710;-95
2024/01/16 00:31:20;;;;;;;24.37;13.00;;;;;;;-143.21;70.52;72357.75;4949184;23;20240;-95
2024/01/16 00:37:21;;;;;;;21.83;12.53;;;;;;;-143.21;70.79;72363.69;4929018;23;20243;-96
2024/01/16 00:44:18;;;;;;;31.13;12.90;;;;;;;-143.21;71.21;72349.81;4945154;23;20258;-94
2024/01/16 00:47:21;;;;;;;19.90;11.67;;;;;;;-143.21;71.42;72355.75;4954149;23;20227;-94
2024/01/16 00:56:21;;;;;;;19.00;11.13;;;;;;;-143.21;71.69;72351.78;4930015;23;20232;-94
2024/01/16 01:05:22;;;;;;;18.10;11.37;;;;;;;-143.21;71.92;72345.84;4922015;23;20248;-95
2024/01/16 01:15:20;;;;;;;21.00;12.53;;;;;;;-143.21;72.62;72371.63;4947280;23;20263;-95
2024/01/16 01:21:20;;;;;;;21.67;11.33;;;;;;;-143.21;72.57;72355.75;4927172;23;20240;-95
2024/01/16 01:24:22;;;;;;;17.30;11.37;;;;;;;-143.21;73.25;72347.84;4939845;23;20311;-95
2024/01/16 01:31:18;;;;;;;24.83;12.70;;;;;;;-143.21;73.09;72349.81;4945006;23;20335;-93
2024/01/16 01:37:20;;;;;;;19.00;11.80;;;;;;;-143.21;72.46;72351.78;4953113;23;20794;-94
2024/01/16 01:50:22;;;;;;;19.67;12.30;;;;;;;-143.21;73.77;72349.81;4968677;23;20629;-94
2024/01/16 02:02:19;;;;;;;18.27;10.50;;;;;;;-143.21;75.24;72335.94;4949887;23;20256;-95
2024/01/16 02:05:20;;;;;;;17.47;10.33;;;;;;;-143.21;74.66;72339.91;4940764;23;20236;-95
2024/01/16 02:08:22;;;;;;;15.90;10.17;;;;;;;-143.21;74.25;72331.97;4938262;23;20225;-94
2024/01/16 02:11:23;;;;;;;15.43;9.53;;;;;;;-143.21;74.70;72337.91;4923163;23;20227;-95
2024/01/16 02:14:20;;;;;;;17.07;9.83;;;;;;;-143.21;73.90;72308.16;4942944;23;20256;-94
2024/01/16 02:21:18;;;;;;;17.77;9.33;;;;;;;-143.21;73.79;72339.91;4960909;23;20251;-94
2024/01/16 02:24:19;;;;;;;15.73;10.10;;;;;;;-143.21;74.28;72320.06;4937734;23;20232;-94
2024/01/16 02:30:18;;;;;;;19.20;11.13;;;;;;;-143.21;73.76;72341.88;4953375;23;20221;-95
2024/01/16 02:33:18;;;;;;;19.83;10.87;;;;;;;-143.21;74.64;72343.88;4938429;23;20256;-95
2024/01/16 02:36:20;;;;;;;17.87;10.23;;;;;;;-143.21;74.98;72353.78;4955303;23;20379;-94
2024/01/16 03:03:21;;;;;;;13.00;8.10;;;;;;;-143.21;82.27;72401.38;4939586;23;20237;-94
2024/01/16 03:06:26;;;;;;;16.77;6.67;;;;;;;-143.21;84.59;72379.56;4955929;23;20366;-96
2024/01/16 03:09:19;;;;;;;9.03;5.87;;;;;;;-143.21;85.20;72369.66;4935432;23;20693;-95
2024/01/16 03:21:51;;;;;;;7.20;4.67;;;;;;;-143.21;88.22;72369.66;748833;23;20523;-94
2024/01/16 03:24:23;;;;;;;9.97;5.07;;;;;;;-143.21;88.35;72385.50;4971145;23;20744;31
2024/01/16 03:27:20;;;;;;;6.23;5.03;;;;;;;-143.21;88.43;72397.41;4946768;23;20323;-95
2024/01/16 03:34:21;;;;;;;8.17;6.10;;;;;;;-143.21;88.18;72431.13;4954854;23;20793;-95
2024/01/16 03:41:20;;;;;;;7.97;5.80;;;;;;;-143.21;88.42;72484.66;4987451;23;20339;-96
2024/01/16 03:50:22;;;;;;;5.77;4.90;;;;;;;-143.21;88.70;72558.06;5023694;23;20260;-95
2024/01/16 04:17:20;;;;;;;4.97;3.67;;;;;;;-143.21;86.04;72667.13;4943556;23;20290;-93
2024/01/16 04:20:22;;;;;;;5.20;3.97;;;;;;;-143.21;86.29;72673.09;4938943;23;20238;-95
2024/01/16 04:30:20;;;;;;;3.73;3.30;;;;;;;-143.21;85.93;72698.88;4958278;23;20261;-92
2024/01/16 04:43:27;;;;;;;5.33;3.40;;;;;;;-143.21;85.53;72760.34;4918678;23;20237;-94
2024/01/16 04:46:20;;;;;;;3.93;3.53;;;;;;;-143.21;85.88;72782.16;4971320;23;20231;-96
2024/01/16 04:49:22;;;;;;;4.83;3.73;;;;;;;-143.21;86.21;72794.06;4932127;23;20341;-94
2024/01/16 04:54:33;;;;;;;4.90;3.67;;;;;;;-143.21;85.49;72796.06;4911452;29;20234;-96
2024/01/16 04:57:02;;;;;;;4.00;3.47;;;;;;;-143.21;85.01;72805.97;4915660;29;20206;-96
2024/01/16 04:59:30;;;;;;;4.40;3.43;;;;;;;-143.21;84.38;72805.97;4917448;29;20211;-96
2024/01/16 05:01:57;;;;;;;4.33;3.40;;;;;;;-143.21;83.92;72809.94;4924524;29;20227;-95
2024/01/16 05:04:24;;;;;;;3.87;3.47;;;;;;;-143.21;83.98;72825.81;4925699;29;20211;-94
2024/01/16 05:06:52;;;;;;;5.17;3.30;;;;;;;-143.21;84.03;72831.75;4912603;29;20237;-93
2024/01/16 05:09:23;;;;;;;5.80;3.83;;;;;;;-143.21;83.54;72831.75;4925768;29;20199;-94
2024/01/16 05:11:50;;;;;;;4.63;2.80;;;;;;;-143.21;83.75;72851.59;4924795;29;20199;-95
2024/01/16 05:14:29;;;;;;;;;;;;;;;;;;;;;
2024/01/16 05:19:43;;;;;;;3.50;3.00;;;;;;;-143.21;84.17;72881.34;4919568;29;20206;-93
2024/01/16 05:22:28;;;;;;;4.33;3.40;;;;;;;-143.21;84.02;72895.22;4922708;29;20211;-93
2024/01/16 05:24:55;;;;;;;3.47;3.00;;;;;;;-143.21;83.62;72903.16;4913701;29;20206;-95
2024/01/16 05:27:33;;;;;;;3.13;2.80;;;;;;;-143.21;83.63;72909.13;4918942;29;20253;-96
2024/01/16 05:30:05;;;;;;;3.57;2.90;;;;;;;-143.21;83.09;72921.00;4911782;29;20206;-95
2024/01/16 05:34:57;;;;;;;3.72;3.00;;;;;;;-143.21;82.07;72921.00;4942643;23;20686;-92
2024/01/16 05:37:30;;;;;;;3.33;2.90;;;;;;;-143.21;81.33;72913.09;4913675;29;20218;-94
2024/01/16 05:40:15;;;;;;;3.47;2.90;;;;;;;-143.21;81.33;72940.84;4914851;29;20289;-96
2024/01/16 05:42:49;;;;;;;3.90;3.00;;;;;;;-143.21;81.15;72952.75;4923303;29;20199;-96
2024/01/16 05:50:48;;;;;;;3.87;2.70;;;;;;;-143.21;79.66;72970.59;4915587;29;20207;-96
2024/01/16 05:53:28;;;;;;;3.57;3.00;;;;;;;-143.21;79.72;72972.59;4925384;29;20203;-96
2024/01/16 05:59:04;;;;;;;3.77;3.13;;;;;;;-143.21;79.95;72978.53;4934217;29;20250;-95
2024/01/16 06:04:42;;;;;;;5.40;3.57;;;;;;;-143.21;80.26;72988.47;4936223;29;20197;-96
2024/01/16 06:17:25;;;;;;;6.40;4.60;;;;;;;-143.21;80.31;73016.22;4920192;23;20263;-95
2024/01/16 06:20:20;;;;;;;6.27;4.30;;;;;;;-143.21;79.48;73012.25;4916814;23;20261;-94
2024/01/16 06:29:21;;;;;;;6.37;4.47;;;;;;;-143.21;77.77;73024.16;4941088;23;20249;-94
2024/01/16 06:35:20;;;;;;;5.47;4.03;;;;;;;-143.21;79.02;73038.03;4960875;23;20210;-94
2024/01/16 06:38:21;;;;;;;3.73;3.00;;;;;;;-143.21;77.14;73047.97;4933167;23;20262;-94
2024/01/16 06:51:21;;;;;;;4.67;3.23;;;;;;;-143.21;76.61;73077.72;4949882;23;20619;-95
2024/01/16 06:54:21;;;;;;;4.60;3.73;;;;;;;-143.21;76.49;73079.69;4918032;23;20644;-94
2024/01/16 07:00:25;;;;;;;4.90;3.50;;;;;;;-143.21;76.86;73125.31;4934944;23;20237;-95
2024/01/16 07:06:20;;;;;;;5.63;4.27;;;;;;;-143.21;76.76;73113.41;4921067;23;20296;-93
2024/01/16 07:12:18;;;;;;;5.60;3.80;;;;;;;-143.21;77.38;73165.00;4936133;23;20261;-95
2024/01/16 07:15:19;;;;;;;7.17;4.80;;;;;;;-143.21;77.69;73186.81;4948209;23;20321;-93
2024/01/16 07:18:21;;;;;;;5.77;4.27;;;;;;;-143.21;77.99;73188.78;4919933;23;20231;-94
2024/01/16 07:21:20;;;;;;;5.70;4.60;;;;;;;-143.21;78.11;73198.72;4943004;23;20241;-94
2024/01/16 07:24:20;;;;;;;6.97;4.10;;;;;;;-143.21;77.98;73206.66;4885954;23;20635;-94
2024/01/16 07:34:25;;;;;;;3.67;3.20;;;;;;;-143.21;77.12;73216.56;4952671;23;20241;-94
2024/01/16 07:37:22;;;;;;;6.57;4.40;;;;;;;-143.21;76.87;73212.59;4934169;23;20325;-94
2024/01/16 07:43:26;;;;;;;6.00;3.90;;;;;;;-143.21;77.17;73224.50;4953682;23;20297;-96
2024/01/16 07:49:23;;;;;;;3.90;3.03;;;;;;;-143.21;77.32;73238.38;4941498;23;20387;31
2024/01/16 07:55:23;;;;;;;4.67;3.33;;;;;;;-143.21;77.72;73270.13;4945483;23;20241;-96
2024/01/16 08:11:21;;;;;;;4.73;3.80;;;;;;;-143.21;77.28;73260.22;4885057;29;20300;-94
2024/01/16 08:14:29;;;;;;;4.37;3.30;;;;;;;-143.21;77.25;73260.22;4932039;23;20762;-93
2024/01/16 08:17:20;;;;;;;5.97;4.20;;;;;;;-143.21;77.01;73252.28;4921404;23;20289;-93
2024/01/16 08:23:30;;;;;;;7.00;4.80;;;;;;;-143.21;76.04;73258.22;4937724;23;20259;-90
2024/01/16 08:26:22;;;;;;;11.87;5.47;;;;;;;-143.21;76.52;73246.31;4949041;23;20293;-95
2024/01/16 08:53:23;;;;;;;5.07;3.43;;;;;;;-143.21;74.33;73353.44;5092429;23;20238;-93
2024/01/16 08:55:50;;;;;;;7.67;4.60;;;;;;;-143.21;74.44;73349.47;4938930;29;20565;-95
2024/01/16 08:58:18;;;;;;;6.20;4.17;;;;;;;-143.21;74.20;73337.56;4937012;29;20294;-95
2024/01/16 09:00:45;;;;;;;4.43;3.33;;;;;;;-143.21;74.22;73351.47;4948556;29;20263;-94
2024/01/16 09:03:16;;;;;;;4.13;3.33;;;;;;;-143.21;74.36;73351.47;4936752;29;20862;-95
2024/01/16 09:06:03;;;;;;;4.00;3.27;;;;;;;-143.21;74.17;73351.47;4928159;29;20202;-94
2024/01/16 09:08:54;;;;;;;5.27;3.40;;;;;;;-143.21;73.80;73327.66;4945424;29;20213;-94
2024/01/16 09:11:21;;;;;;;3.90;3.30;;;;;;;-143.21;73.70;73331.63;4949858;29;20711;-96
2024/01/16 09:13:48;;;;;;;11.10;4.77;;;;;;;-143.21;73.55;73359.41;4926924;29;20258;-95
2024/01/16 09:16:16;;;;;;;8.10;4.47;;;;;;;-143.21;74.33;73351.47;4939469;29;20281;-94
2024/01/16 09:18:44;;;;;;;4.23;3.30;;;;;;;-143.21;74.23;73359.41;4944821;29;20293;-94
2024/01/16 09:21:11;;;;;;;7.20;4.80;;;;;;;-143.21;74.46;73349.47;4945561;29;20266;-93
2024/01/16 09:23:38;;;;;;;5.43;4.30;;;;;;;-143.21;73.73;73355.44;4949464;29;20206;-92
2024/01/16 09:26:07;;;;;;;6.10;4.40;;;;;;;-143.21;73.63;73345.50;4940333;29;20202;-94
2024/01/16 09:28:35;;;;;;;6.90;3.80;;;;;;;-143.21;73.08;73345.50;4943598;29;20204;-94
2024/01/16 09:31:02;;;;;;;8.67;4.73;;;;;;;-143.21;72.97;73327.66;4958264;28;20208;-94
2024/01/16 09:33:32;;;;;;;3.90;2.90;;;;;;;-143.21;72.14;73325.69;4948503;29;20202;-93
2024/01/16 09:36:00;;;;;;;4.30;2.67;;;;;;;-143.21;71.99;73323.69;4927230;29;20202;-95
2024/01/16 09:38:27;;;;;;;3.57;2.80;;;;;;;-143.21;71.21;73297.91;4934093;29;20283;-94
2024/01/16 09:40:58;;;;;;;3.17;2.80;;;;;;;-143.21;71.27;73287.97;4958646;29;20213;-95
2024/01/16 09:43:31;;;;;;;3.93;3.30;;;;;;;-143.21;70.57;73289.97;4939282;29;20303;-94
2024/01/16 09:46:02;;;;;;;6.90;3.50;;;;;;;-143.21;70.28;73287.97;4922878;29;20677;-96
2024/01/16 09:48:31;;;;;;;4.53;3.20;;;;;;;-143.21;70.29;73274.09;4929580;29;20297;-96
2024/01/16 09:51:01;;;;;;;5.30;4.07;;;;;;;-143.21;70.25;73264.19;4950757;29;20213;-94
2024/01/16 09:53:28;;;;;;;8.10;4.70;;;;;;;-143.21;70.05;73240.38;4958755;28;20316;-94
2024/01/16 09:55:59;;;;;;;8.00;4.27;;;;;;;-143.21;69.21;73232.44;4931947;29;20209;-94
2024/01/16 09:58:32;;;;;;;7.77;4.67;;;;;;;-143.21;68.39;73224.50;4939904;29;20238;-96
2024/01/16 10:00:59;;;;;;;6.77;4.13;;;;;;;-143.21;68.16;73214.59;4949424;28;20198;-94
2024/01/16 10:03:30;;;;;;;6.27;3.80;;;;;;;-143.21;67.34;73202.69;4953940;28;20236;-96
2024/01/16 10:06:01;;;;;;;3.83;2.83;;;;;;;-143.21;67.07;73202.69;4941813;29;20206;-96
2024/01/16 10:08:32;;;;;;;5.00;3.40;;;;;;;-143.21;66.57;73202.69;4943153;29;20198;-96
2024/01/16 10:11:00;;;;;;;6.03;4.10;;;;;;;-143.21;66.57;73212.59;4953104;28;20299;-95
2024/01/16 10:13:30;;;;;;;7.43;4.67;;;;;;;-143.21;66.98;73210.63;4944142;29;20289;-94
2024/01/16 10:15:57;;;;;;;7.10;4.53;;;;;;;-143.21;67.40;73159.03;4949123;29;20200;-94
2024/01/16 10:18:29;;;;;;;8.27;3.80;;;;;;;-143.21;65.13;73061.84;4958047;28;20262;-94
2024/01/16 10:20:59;;;;;;;4.40;2.73;;;;;;;-143.21;63.11;73105.47;4956975;28;20192;-95
2024/01/16 10:23:28;;;;;;;3.57;2.73;;;;;;;-143.21;64.34;73157.06;4947849;29;20223;-95
2024/01/16 10:36:21;;;;;;;8.40;5.13;;;;;;;-143.21;65.79;73176.91;4950048;23;20245;-95
2024/01/16 10:46:20;;;;;;;4.40;3.30;;;;;;;-143.21;65.15;73163.00;4967398;23;20438;-94
2024/01/16 10:55:22;;;;;;;5.83;4.17;;;;;;;-143.21;66.09;73145.16;4963913;23;20241;-94
2024/01/16 10:58:21;;;;;;;7.43;4.67;;;;;;;-143.21;66.01;73113.41;4943106;23;20252;-94
2024/01/16 11:04:21;;;;;;;6.67;4.40;;;;;;;-143.21;65.29;73103.50;4963050;23;20229;-93
2024/01/16 11:10:19;;;;;;;7.83;4.23;;;;;;;-143.21;65.67;73097.56;4924033;23;20239;-93
2024/01/16 11:22:22;;;;;;;4.23;3.43;;;;;;;-143.21;63.09;73063.84;4966540;23;20507;-95
2024/01/16 11:36:34;;;;;;;;;;;;;;;;;;;;;
2024/01/16 11:39:21;;;;;;;4.63;3.20;;;;;;;-143.21;64.49;73105.47;4907392;23;21171;-96
2024/01/16 11:55:20;;;;;;;4.93;3.30;;;;;;;-143.21;65.87;73125.31;4974547;23;20320;-93
2024/01/16 12:04:27;;;;;;;6.03;2.93;;;;;;;-143.21;65.25;73143.16;4965970;23;20263;31
2024/01/16 12:11:20;;;;;;;4.40;3.03;;;;;;;-143.21;64.09;73159.03;4955947;23;20357;-95
2024/01/16 12:14:21;;;;;;;5.07;3.47;;;;;;;-143.21;64.10;73145.16;4952343;23;20313;-94
2024/01/16 12:20:29;;;;;;;6.63;4.37;;;;;;;-143.21;63.36;73131.28;4939663;23;20247;-93
2024/01/16 12:23:00;;;;;;;8.03;3.67;;;;;;;-143.21;63.20;73105.47;4861489;29;20239;-96
2024/01/16 12:25:30;;;;;;;5.63;3.50;;;;;;;-143.21;63.67;73117.38;4881386;29;20658;-95
2024/01/16 12:28:02;;;;;;;8.10;3.80;;;;;;;-143.21;63.21;73141.19;4881434;29;20206;-94
2024/01/16 12:30:33;;;;;;;5.80;3.50;;;;;;;-143.21;63.36;73145.16;4995843;24;20236;-93
2024/01/16 12:33:09;;;;;;;5.50;3.10;;;;;;;-143.21;63.57;73145.16;4944299;29;20198;-95
2024/01/16 12:35:39;;;;;;;4.30;3.00;;;;;;;-143.21;63.41;73135.25;4933725;29;20200;-95
2024/01/16 12:38:09;;;;;;;6.50;3.37;;;;;;;-143.21;63.00;73137.22;4939780;29;20610;-94
2024/01/16 12:40:40;;;;;;;6.47;2.90;;;;;;;-143.21;63.82;73147.13;4942327;29;20209;-96
2024/01/16 12:43:09;;;;;;;7.27;4.47;;;;;;;-143.21;63.16;73159.03;4932626;29;20202;-95
2024/01/16 12:45:36;;;;;;;9.93;6.67;;;;;;;-143.21;63.80;73176.91;4934486;29;20219;-96
2024/01/16 12:48:07;;;;;;;8.73;6.07;;;;;;;-143.21;64.32;73172.94;4941073;29;20209;-94
2024/01/16 12:50:36;;;;;;;12.47;6.97;;;;;;;-143.21;64.83;73165.00;4951792;29;20260;-95
2024/01/16 12:53:07;;;;;;;10.80;5.60;;;;;;;-143.21;63.80;73178.88;4950060;29;20239;-94
2024/01/16 12:55:36;;;;;;;7.53;4.87;;;;;;;-143.21;64.20;73196.72;4938382;29;20250;-95
2024/01/16 12:58:19;;;;;;;7.27;4.27;;;;;;;-143.21;64.09;73168.97;4937620;29;20228;-94
2024/01/16 13:00:48;;;;;;;9.57;4.93;;;;;;;-143.21;64.01;73153.09;4916316;29;20222;-94
2024/01/16 13:03:22;;;;;;;12.03;6.70;;;;;;;-143.21;64.22;73137.22;4906290;29;20671;-95
2024/01/16 13:06:07;;;;;;;12.17;6.20;;;;;;;-143.21;63.96;73141.19;4918693;29;20585;-94
2024/01/16 13:08:37;;;;;;;11.90;6.30;;;;;;;-143.21;62.55;73137.22;4925053;29;20216;-93
2024/01/16 13:11:09;;;;;;;8.70;5.13;;;;;;;-143.21;62.88;73153.09;4923556;29;20201;-96
2024/01/16 13:13:40;;;;;;;13.53;5.80;;;;;;;-143.21;63.34;73145.16;4912839;29;20198;-94
2024/01/16 13:16:08;;;;;;;7.27;4.80;;;;;;;-143.21;61.97;73137.22;4912577;29;20206;-94
2024/01/16 13:18:39;;;;;;;7.40;4.53;;;;;;;-143.21;61.34;73139.22;4921018;29;20230;-94
2024/01/16 13:21:06;;;;;;;9.53;5.07;;;;;;;-143.21;61.68;73149.13;4922272;29;20206;-95
2024/01/16 13:23:35;;;;;;;7.63;4.97;;;;;;;-143.21;61.82;73143.16;4922884;29;20246;-94
2024/01/16 13:26:04;;;;;;;7.97;5.67;;;;;;;-143.21;62.37;73157.06;4909375;29;20263;-93
2024/01/16 13:28:42;;;;;;;;;;;;;;;;;;;;;
2024/01/16 13:31:10;;;;;;;7.40;4.10;;;;;;;-143.21;63.15;73149.13;4908976;29;20322;-93
2024/01/16 13:33:37;;;;;;;6.80;3.77;;;;;;;-143.21;63.57;73153.09;4915432;29;20213;-94
2024/01/16 13:36:07;;;;;;;5.77;3.90;;;;;;;-143.21;63.33;73159.03;4931400;29;20202;-94
2024/01/16 13:39:12;;;;;;;5.63;3.70;;;;;;;-143.21;63.99;73176.91;4911634;29;20236;-94
2024/01/16 13:41:42;;;;;;;4.53;3.53;;;;;;;-143.21;64.12;73176.91;4915786;29;20219;-95
2024/01/16 13:44:10;;;;;;;7.33;5.00;;;;;;;-143.21;64.40;73178.88;4923862;29;20206;-95
2024/01/16 13:46:46;;;;;;;7.40;5.63;;;;;;;-143.21;64.52;73176.91;4922827;29;20266;-95
2024/01/16 13:49:13;;;;;;;6.57;4.27;;;;;;;-143.21;64.30;73198.72;4942405;29;20272;-95
2024/01/16 13:51:40;;;;;;;7.20;4.80;;;;;;;-143.21;63.92;73192.75;4936780;29;20221;-94
2024/01/16 13:59:32;;;;;;;8.57;5.80;;;;;;;-143.21;63.04;73170.94;4933257;29;20230;-96
2024/01/16 14:02:00;;;;;;;8.90;5.47;;;;;;;-143.21;61.67;73141.19;4908644;29;20305;-96
2024/01/16 14:04:28;;;;;;;8.37;4.80;;;;;;;-143.21;61.56;73141.19;4918869;29;20211;-95
2024/01/16 14:06:55;;;;;;;6.63;4.83;;;;;;;-143.21;61.14;73133.25;4925169;29;20643;-94
2024/01/16 14:09:23;;;;;;;7.80;3.90;;;;;;;-143.21;61.44;73117.38;4924505;29;20199;-95
2024/01/16 14:11:51;;;;;;;9.60;6.20;;;;;;;-143.21;60.31;73129.28;4918449;29;20203;-94
2024/01/16 14:14:19;;;;;;;8.97;5.43;;;;;;;-143.21;60.75;73143.16;4901941;29;20235;-93
2024/01/16 14:16:49;;;;;;;11.83;5.30;;;;;;;-143.21;60.54;73178.88;4916339;29;20209;-94
2024/01/16 14:19:17;;;;;;;7.90;4.90;;;;;;;-143.21;60.52;73206.66;4924759;29;20237;-94
2024/01/16 14:21:47;;;;;;;8.20;5.33;;;;;;;-143.21;61.49;73214.59;4912174;29;20644;-95
2024/01/16 14:24:14;;;;;;;8.63;5.10;;;;;;;-143.21;61.57;73240.38;4899677;29;20210;-95
2024/01/16 14:26:46;;;;;;;13.10;5.77;;;;;;;-143.21;62.04;73246.31;4904463;29;20197;-94
2024/01/16 14:29:15;;;;;;;11.07;6.60;;;;;;;-143.21;62.33;73260.22;4916721;29;20214;-94
2024/01/16 14:31:43;;;;;;;13.40;7.10;;;;;;;-143.21;62.12;73260.22;4916821;29;20265;-94
2024/01/16 14:34:14;;;;;;;13.97;6.53;;;;;;;-143.21;61.91;73256.25;4916376;29;20205;-95
2024/01/16 14:36:47;;;;;;;8.70;5.97;;;;;;;-143.21;62.36;73272.13;4914197;29;20213;-94
2024/01/16 14:39:17;;;;;;;8.53;5.63;;;;;;;-143.21;62.88;73280.03;4899554;29;20242;-94
2024/01/16 14:41:49;;;;;;;6.23;4.37;;;;;;;-143.21;63.04;73289.97;4917461;29;20210;-95
2024/01/16 14:44:19;;;;;;;7.07;4.60;;;;;;;-143.21;63.31;73280.03;4930873;29;20200;-96
2024/01/16 14:46:48;;;;;;;7.67;4.90;;;;;;;-143.21;63.73;73291.94;4912682;29;20220;-96
2024/01/16 14:49:15;;;;;;;7.20;4.50;;;;;;;-143.21;64.04;73311.78;4914534;29;20202;-94
2024/01/16 14:51:42;;;;;;;7.13;5.10;;;;;;;-143.21;64.72;73317.75;4917827;29;20268;-94
2024/01/16 14:54:10;;;;;;;11.23;6.80;;;;;;;-143.21;64.87;73321.72;4914138;29;20205;-94
2024/01/16 14:56:44;;;;;;;10.93;6.73;;;;;;;-143.21;65.63;73327.66;4927810;29;20204;-94
2024/01/16 14:59:11;;;;;;;12.87;8.57;;;;;;;-143.21;65.42;73331.63;4928989;29;20258;-94
2024/01/16 15:01:40;;;;;;;17.40;11.13;;;;;;;-143.21;65.48;73331.63;4911646;29;20213;-93
2024/01/16 15:04:07;;;;;;;23.03;11.90;;;;;;;-143.21;65.71;73333.59;4922030;29;20212;-92
2024/01/16 15:06:34;;;;;;;19.80;12.20;;;;;;;-143.21;65.96;73345.50;4915176;29;20206;-94
2024/01/16 15:09:01;;;;;;;19.53;11.27;;;;;;;-143.21;66.30;73365.34;4907146;29;20200;-92
2024/01/16 15:11:28;;;;;;;18.33;10.93;;;;;;;-143.21;66.70;73387.16;4924701;29;20205;-94
2024/01/16 15:13:57;;;;;;;21.67;11.67;;;;;;;-143.21;67.05;73401.06;4912655;29;20214;-93
2024/01/16 15:16:29;;;;;;;25.97;12.47;;;;;;;-143.21;67.08;73403.03;4928331;29;20211;-94
2024/01/16 15:19:04;;;;;;;20.70;11.50;;;;;;;-143.21;67.84;73410.97;4906028;29;20291;-95
2024/01/16 15:21:32;;;;;;;25.17;12.87;;;;;;;-143.21;67.84;73410.97;4915661;29;20203;-94
2024/01/16 15:23:59;;;;;;;28.77;14.50;;;;;;;-143.21;68.40;73409.00;4916122;29;20194;-93
2024/01/16 15:26:26;;;;;;;30.80;16.33;;;;;;;-143.21;68.53;73422.88;4916340;29;20203;-93
2024/01/16 15:28:52;;;;;;;32.63;16.73;;;;;;;-143.21;68.84;73418.91;4909400;29;20206;-92
2024/01/16 15:31:21;;;;;;;30.97;18.23;;;;;;;-143.21;69.01;73414.94;4909061;29;20243;-93
2024/01/16 15:33:48;;;;;;;30.53;18.70;;;;;;;-143.21;68.69;73412.97;4919984;29;20212;-93
2024/01/16 15:36:16;;;;;;;31.83;17.73;;;;;;;-143.21;68.29;73424.84;4903947;29;20232;-93
2024/01/16 15:38:43;;;;;;;31.33;17.83;;;;;;;-143.21;68.05;73426.84;4912992;29;20239;-93
2024/01/16 15:41:10;;;;;;;28.20;16.20;;;;;;;-143.21;68.32;73434.78;4912474;29;20203;-94
2024/01/16 15:43:37;;;;;;;27.37;13.27;;;;;;;-143.21;68.42;73442.72;4908077;29;20219;-93
2024/01/16 15:46:04;;;;;;;20.40;11.90;;;;;;;-143.21;69.02;73428.81;4917776;29;20200;-93
2024/01/16 15:48:33;;;;;;;18.77;11.17;;;;;;;-143.21;68.24;73442.72;4909221;29;20583;-95
2024/01/16 15:51:00;;;;;;;24.10;13.60;;;;;;;-143.21;69.09;73470.50;4906939;29;20267;-92
2024/01/16 15:53:28;;;;;;;21.73;12.30;;;;;;;-143.21;69.39;73496.28;4911732;29;20215;-93
2024/01/16 15:55:55;;;;;;;24.00;13.47;;;;;;;-143.21;69.85;73512.16;4919381;29;20202;-93
2024/01/16 15:58:22;;;;;;;23.80;13.37;;;;;;;-143.21;70.26;73514.13;4907345;29;20231;-93
2024/01/16 16:00:49;;;;;;;21.23;11.50;;;;;;;-143.21;71.05;73543.88;4928788;29;20199;-95
2024/01/16 16:03:16;;;;;;;18.93;11.00;;;;;;;-143.21;71.13;73569.69;4925271;29;20214;-93
2024/01/16 16:05:43;;;;;;;19.27;9.70;;;;;;;-143.21;71.35;73569.69;4920906;29;20209;-93
2024/01/16 16:08:10;;;;;;;15.37;8.97;;;;;;;-143.21;71.67;73589.53;4921975;29;20301;-95
2024/01/16 16:10:41;;;;;;;17.07;9.27;;;;;;;-143.21;71.54;73595.47;4918795;29;20192;-94
2024/01/16 16:13:09;;;;;;;17.93;9.70;;;;;;;-143.21;71.96;73581.59;4915610;29;20263;-92
2024/01/16 16:15:35;;;;;;;14.03;8.50;;;;;;;-143.21;71.29;73571.66;4908138;29;20289;-93
2024/01/16 16:18:02;;;;;;;15.60;9.30;;;;;;;-143.21;71.70;73597.47;4919024;29;20228;-93
2024/01/16 16:20:29;;;;;;;17.80;10.00;;;;;;;-143.21;71.63;73605.38;4910579;29;20227;-93
2024/01/16 16:22:56;;;;;;;18.83;10.03;;;;;;;-143.21;71.64;73613.31;4915112;29;20289;-94
2024/01/16 16:25:23;;;;;;;19.13;11.00;;;;;;;-143.21;71.67;73607.38;4921955;29;20209;-92
2024/01/16 16:27:52;;;;;;;23.60;13.27;;;;;;;-143.21;72.08;73617.28;4943582;29;20210;-94
2024/01/16 16:30:23;;;;;;;34.50;19.30;;;;;;;-143.21;72.18;73615.31;4915131;29;20233;-93
2024/01/16 16:32:50;;;;;;;47.10;24.43;;;;;;;-143.21;71.52;73597.47;4913511;29;20679;-93
2024/01/16 16:35:17;;;;;;;46.70;25.87;;;;;;;-143.21;71.64;73601.41;4929969;29;20688;-93
2024/01/16 16:37:44;;;;;;;65.53;30.77;;;;;;;-143.21;72.52;73613.31;4923476;29;20683;-92
2024/01/16 16:40:12;;;;;;;84.13;40.83;;;;;;;-143.21;72.46;73615.31;4918380;29;20617;-95
2024/01/16 16:42:39;;;;;;;92.37;44.43;;;;;;;-143.21;72.71;73607.38;4905657;29;20231;-94
2024/01/16 16:45:11;;;;;;;87.80;42.07;;;;;;;-143.21;72.81;73601.41;4906238;29;20672;-92
2024/01/16 16:47:43;;;;;;;78.83;40.53;;;;;;;-143.21;72.52;73601.41;4920860;29;20184;-93
2024/01/16 16:50:10;;;;;;;75.57;38.77;;;;;;;-143.21;72.61;73601.41;4930451;29;20192;-93
2024/01/16 16:52:48;;;;;;;40.27;22.53;;;;;;;-143.21;73.04;73603.41;4944274;23;20221;-95
2024/01/16 16:57:46;;;;;;;36.30;20.17;;;;;;;-143.21;72.74;73601.41;4942779;29;20219;-95
2024/01/16 17:00:16;;;;;;;41.90;24.63;;;;;;;-143.21;72.90;73593.50;4937830;29;20230;-95
2024/01/16 17:02:44;;;;;;;37.90;21.07;;;;;;;-143.21;72.94;73597.47;4942015;29;20223;-94
2024/01/16 17:05:22;;;;;;;43.37;23.10;;;;;;;-143.21;72.51;73591.50;4946873;29;20212;-94
2024/01/16 17:07:58;;;;;;;57.90;30.30;;;;;;;-143.21;72.73;73593.50;4935885;29;20205;-94
2024/01/16 17:13:06;;;;;;;62.70;33.67;;;;;;;-143.21;73.07;73589.53;4928554;29;20206;-95
2024/01/16 17:15:35;;;;;;;55.37;31.17;;;;;;;-143.21;73.23;73587.53;4945670;29;20214;-94
2024/01/16 17:18:23;;;;;;;45.83;25.43;;;;;;;-143.21;73.46;73579.59;4939340;29;20275;-95
2024/01/16 17:20:52;;;;;;;53.53;29.53;;;;;;;-143.21;73.48;73577.63;4932991;29;20219;-94
2024/01/16 17:23:30;;;;;;;54.03;29.30;;;;;;;-143.21;72.97;73573.66;4943165;29;20200;-94
2024/01/16 17:26:02;;;;;;;55.53;29.30;;;;;;;-143.21;73.09;73585.56;4945431;28;20204;-94
2024/01/16 17:28:30;;;;;;;56.47;29.63;;;;;;;-143.21;73.30;73589.53;4937565;29;20262;-92
2024/01/16 17:31:02;;;;;;;56.07;30.13;;;;;;;-143.21;73.54;73575.63;4949081;29;20269;-92
2024/01/16 17:33:30;;;;;;;51.00;27.87;;;;;;;-143.21;73.38;73589.53;4919909;29;20263;-91
2024/01/16 17:36:04;;;;;;;54.17;30.30;;;;;;;-143.21;73.25;73599.44;4925591;29;20581;-93
2024/01/16 17:38:46;;;;;;;63.10;34.63;;;;;;;-143.21;73.59;73587.53;4923891;29;20286;-94
2024/01/16 17:41:14;;;;;;;70.87;36.03;;;;;;;-143.21;73.40;73581.59;4937554;29;20225;-92
2024/01/16 17:43:42;;;;;;;69.07;35.73;;;;;;;-143.21;73.69;73599.44;4935037;29;20245;-93
2024/01/16 17:46:13;;;;;;;63.93;33.90;;;;;;;-143.21;73.65;73593.50;4921542;29;20203;-91
2024/01/16 17:48:40;;;;;;;64.23;33.77;;;;;;;-143.21;73.80;73597.47;4919636;29;20207;-92
2024/01/16 17:51:09;;;;;;;63.27;34.43;;;;;;;-143.21;74.03;73597.47;4938062;29;20238;-91
2024/01/16 17:53:35;;;;;;;61.77;33.93;;;;;;;-143.21;74.13;73603.41;4939285;29;20653;-93
2024/01/16 17:56:02;;;;;;;64.93;34.00;;;;;;;-143.21;74.12;73605.38;4946957;29;20229;-92
2024/01/16 17:58:30;;;;;;;66.97;33.90;;;;;;;-143.21;74.07;73607.38;4915153;29;20709;-93
2024/01/16 18:00:58;;;;;;;56.20;31.50;;;;;;;-143.21;74.33;73621.25;4931126;29;20660;-92
2024/01/16 18:03:28;;;;;;;73.47;38.60;;;;;;;-143.21;74.15;73633.16;4919995;29;20289;-92
2024/01/16 18:05:55;;;;;;;96.40;47.67;;;;;;;-143.21;74.46;73643.09;4908437;29;20583;-91
2024/01/16 18:08:22;;;;;;;113.40;56.87;;;;;;;-143.21;74.41;73635.16;4909354;29;20207;-91
2024/01/16 18:10:53;;;;;;;134.27;65.07;;;;;;;-143.21;74.68;73627.22;4923261;29;20198;-91
2024/01/16 18:13:21;;;;;;;121.50;60.03;;;;;;;-143.21;74.46;73633.16;4897716;29;20290;-92